sensor_id;sensor_type;location;lat;lon;timestamp;temperature;humidity
15131;DHT22;7666;50.920;4.628;2023-07-20T00:00:35;16.90;99.90
15131;DHT22;7666;50.920;4.628;2023-07-20T00:03:21;16.80;99.90
15131;DHT22;7666;50.920;4.628;2023-07-20T00:06:10;16.70;99.90
15131;DHT22;7666;50.920;4.628;2023-07-20T00:08:56;16.70;99.90
15131;DHT22;7666;50.920;4.628;2023-07-20T00:11:51;16.80;99.90
15131;DHT22;7666;50.920;4.628;2023-07-20T00:14:37;16.80;99.90
15131;DHT22;7666;50.920;4.628;2023-07-20T00:17:23;16.80;99.90
15131;DHT22;7666;50.920;4.628;2023-07-20T00:20:09;16.70;99.90
15131;DHT22;7666;50.920;4.628;2023-07-20T00:22:56;16.70;99.90
15131;DHT22;7666;50.920;4.628;2023-07-20T00:25:43;16.80;99.90
15131;DHT22;7666;50.920;4.628;2023-07-20T00:28:29;16.80;99.90
15131;DHT22;7666;50.920;4.628;2023-07-20T00:31:15;16.80;99.90
15131;DHT22;7666;50.920;4.628;2023-07-20T00:34:01;16.80;99.90
15131;DHT22;7666;50.920;4.628;2023-07-20T00:36:47;16.80;99.90
15131;DHT22;7666;50.920;4.628;2023-07-20T00:39:34;16.80;99.90
15131;DHT22;7666;50.920;4.628;2023-07-20T00:42:20;16.70;99.90
15131;DHT22;7666;50.920;4.628;2023-07-20T00:45:06;16.80;99.90
15131;DHT22;7666;50.920;4.628;2023-07-20T00:47:52;16.80;99.90
15131;DHT22;7666;50.920;4.628;2023-07-20T00:50:40;16.80;99.90
15131;DHT22;7666;50.920;4.628;2023-07-20T00:53:26;16.80;99.90
15131;DHT22;7666;50.920;4.628;2023-07-20T00:56:12;16.80;99.90
15131;DHT22;7666;50.920;4.628;2023-07-20T00:58:58;16.80;99.90
15131;DHT22;7666;50.920;4.628;2023-07-20T01:01:44;16.80;99.90
15131;DHT22;7666;50.920;4.628;2023-07-20T01:04:30;16.70;99.90
15131;DHT22;7666;50.920;4.628;2023-07-20T01:07:26;16.70;99.90
15131;DHT22;7666;50.920;4.628;2023-07-20T01:10:33;16.70;99.90
15131;DHT22;7666;50.920;4.628;2023-07-20T01:13:22;16.60;99.90
15131;DHT22;7666;50.920;4.628;2023-07-20T01:16:08;16.60;99.90
15131;DHT22;7666;50.920;4.628;2023-07-20T01:18:54;16.60;99.90
15131;DHT22;7666;50.920;4.628;2023-07-20T01:21:48;16.60;99.90
15131;DHT22;7666;50.920;4.628;2023-07-20T01:31:11;16.60;99.90
15131;DHT22;7666;50.920;4.628;2023-07-20T01:34:01;16.60;99.90
15131;DHT22;7666;50.920;4.628;2023-07-20T01:36:48;16.60;99.90
15131;DHT22;7666;50.920;4.628;2023-07-20T01:39:37;16.60;99.90
15131;DHT22;7666;50.920;4.628;2023-07-20T01:42:23;16.60;99.90
15131;DHT22;7666;50.920;4.628;2023-07-20T01:45:10;16.60;99.90
15131;DHT22;7666;50.920;4.628;2023-07-20T01:47:56;16.60;99.90
15131;DHT22;7666;50.920;4.628;2023-07-20T01:50:42;16.60;99.90
15131;DHT22;7666;50.920;4.628;2023-07-20T01:53:28;16.60;99.90
15131;DHT22;7666;50.920;4.628;2023-07-20T01:56:14;16.60;99.90
15131;DHT22;7666;50.920;4.628;2023-07-20T01:59:00;16.60;99.90
15131;DHT22;7666;50.920;4.628;2023-07-20T02:01:46;16.50;99.90
15131;DHT22;7666;50.920;4.628;2023-07-20T02:04:32;16.50;99.90
15131;DHT22;7666;50.920;4.628;2023-07-20T02:07:18;16.50;99.90
15131;DHT22;7666;50.920;4.628;2023-07-20T02:10:04;16.40;99.90
15131;DHT22;7666;50.920;4.628;2023-07-20T02:12:50;16.40;99.90
15131;DHT22;7666;50.920;4.628;2023-07-20T02:15:36;16.40;99.90
15131;DHT22;7666;50.920;4.628;2023-07-20T02:18:22;16.40;99.90
15131;DHT22;7666;50.920;4.628;2023-07-20T02:21:08;16.30;99.90
15131;DHT22;7666;50.920;4.628;2023-07-20T02:23:55;16.30;99.90
15131;DHT22;7666;50.920;4.628;2023-07-20T02:26:41;16.30;99.90
15131;DHT22;7666;50.920;4.628;2023-07-20T02:29:28;16.30;99.90
15131;DHT22;7666;50.920;4.628;2023-07-20T02:32:13;16.30;99.90
15131;DHT22;7666;50.920;4.628;2023-07-20T02:35:00;16.30;99.90
15131;DHT22;7666;50.920;4.628;2023-07-20T02:37:46;16.30;99.90
15131;DHT22;7666;50.920;4.628;2023-07-20T02:40:31;16.30;99.90
15131;DHT22;7666;50.920;4.628;2023-07-20T02:43:17;16.30;99.90
15131;DHT22;7666;50.920;4.628;2023-07-20T02:46:03;16.20;99.90
15131;DHT22;7666;50.920;4.628;2023-07-20T02:48:49;16.20;99.90
15131;DHT22;7666;50.920;4.628;2023-07-20T02:51:35;16.10;99.90
15131;DHT22;7666;50.920;4.628;2023-07-20T02:54:21;16.10;99.90
15131;DHT22;7666;50.920;4.628;2023-07-20T02:57:07;16.10;99.90
15131;DHT22;7666;50.920;4.628;2023-07-20T02:59:53;16.10;99.90
15131;DHT22;7666;50.920;4.628;2023-07-20T03:02:40;16.10;99.90
15131;DHT22;7666;50.920;4.628;2023-07-20T03:05:26;16.10;99.90
15131;DHT22;7666;50.920;4.628;2023-07-20T03:08:13;16.10;99.90
15131;DHT22;7666;50.920;4.628;2023-07-20T03:10:59;16.00;99.90
15131;DHT22;7666;50.920;4.628;2023-07-20T03:13:45;16.00;99.90
15131;DHT22;7666;50.920;4.628;2023-07-20T03:16:31;16.00;99.90
15131;DHT22;7666;50.920;4.628;2023-07-20T03:19:20;16.00;99.90
15131;DHT22;7666;50.920;4.628;2023-07-20T03:22:06;16.00;99.90
15131;DHT22;7666;50.920;4.628;2023-07-20T03:24:52;16.00;99.90
15131;DHT22;7666;50.920;4.628;2023-07-20T03:27:38;16.00;99.90
15131;DHT22;7666;50.920;4.628;2023-07-20T03:30:24;16.00;99.90
15131;DHT22;7666;50.920;4.628;2023-07-20T03:33:11;16.00;99.90
15131;DHT22;7666;50.920;4.628;2023-07-20T03:35:57;16.00;99.90
15131;DHT22;7666;50.920;4.628;2023-07-20T03:38:44;16.00;99.90
15131;DHT22;7666;50.920;4.628;2023-07-20T03:41:30;16.00;99.90
15131;DHT22;7666;50.920;4.628;2023-07-20T03:44:16;16.00;99.90
15131;DHT22;7666;50.920;4.628;2023-07-20T03:47:03;16.00;99.90
15131;DHT22;7666;50.920;4.628;2023-07-20T03:49:50;16.00;99.90
15131;DHT22;7666;50.920;4.628;2023-07-20T03:52:36;16.00;99.90
15131;DHT22;7666;50.920;4.628;2023-07-20T03:55:22;15.90;99.90
15131;DHT22;7666;50.920;4.628;2023-07-20T03:58:08;15.90;99.90
15131;DHT22;7666;50.920;4.628;2023-07-20T04:00:54;15.90;99.90
15131;DHT22;7666;50.920;4.628;2023-07-20T04:03:40;15.90;99.90
15131;DHT22;7666;50.920;4.628;2023-07-20T04:06:26;15.90;99.90
15131;DHT22;7666;50.920;4.628;2023-07-20T04:09:12;16.00;99.90
15131;DHT22;7666;50.920;4.628;2023-07-20T04:11:58;16.00;99.90
15131;DHT22;7666;50.920;4.628;2023-07-20T04:14:44;16.10;99.90
15131;DHT22;7666;50.920;4.628;2023-07-20T04:17:30;16.10;99.90
15131;DHT22;7666;50.920;4.628;2023-07-20T04:20:16;16.10;99.90
15131;DHT22;7666;50.920;4.628;2023-07-20T04:23:03;16.10;99.90
15131;DHT22;7666;50.920;4.628;2023-07-20T04:25:51;16.10;99.90
15131;DHT22;7666;50.920;4.628;2023-07-20T04:28:37;16.10;99.90
15131;DHT22;7666;50.920;4.628;2023-07-20T04:31:23;16.20;99.90
15131;DHT22;7666;50.920;4.628;2023-07-20T04:34:09;16.30;99.90
15131;DHT22;7666;50.920;4.628;2023-07-20T04:36:55;16.30;99.90
15131;DHT22;7666;50.920;4.628;2023-07-20T04:39:41;16.30;99.90
15131;DHT22;7666;50.920;4.628;2023-07-20T04:42:27;16.30;99.90
15131;DHT22;7666;50.920;4.628;2023-07-20T04:45:13;16.30;99.90
15131;DHT22;7666;50.920;4.628;2023-07-20T04:47:59;16.30;99.90
15131;DHT22;7666;50.920;4.628;2023-07-20T04:50:45;16.30;99.90
15131;DHT22;7666;50.920;4.628;2023-07-20T04:53:31;16.30;99.90
15131;DHT22;7666;50.920;4.628;2023-07-20T04:56:17;16.40;99.90
15131;DHT22;7666;50.920;4.628;2023-07-20T04:59:03;16.40;99.90
15131;DHT22;7666;50.920;4.628;2023-07-20T05:01:49;16.50;99.90
15131;DHT22;7666;50.920;4.628;2023-07-20T05:04:35;16.60;99.90
15131;DHT22;7666;50.920;4.628;2023-07-20T05:07:22;16.70;99.90
15131;DHT22;7666;50.920;4.628;2023-07-20T05:10:08;16.80;99.90
15131;DHT22;7666;50.920;4.628;2023-07-20T05:12:54;16.90;99.90
15131;DHT22;7666;50.920;4.628;2023-07-20T05:15:40;17.00;99.90
15131;DHT22;7666;50.920;4.628;2023-07-20T05:18:26;17.00;99.90
15131;DHT22;7666;50.920;4.628;2023-07-20T05:21:12;17.00;99.90
15131;DHT22;7666;50.920;4.628;2023-07-20T05:23:58;17.00;99.90
15131;DHT22;7666;50.920;4.628;2023-07-20T05:26:44;17.00;99.90
15131;DHT22;7666;50.920;4.628;2023-07-20T05:29:29;17.10;99.90
15131;DHT22;7666;50.920;4.628;2023-07-20T05:32:16;17.10;99.90
15131;DHT22;7666;50.920;4.628;2023-07-20T05:35:02;17.20;99.90
15131;DHT22;7666;50.920;4.628;2023-07-20T05:37:48;17.30;99.90
15131;DHT22;7666;50.920;4.628;2023-07-20T05:40:39;17.30;99.90
15131;DHT22;7666;50.920;4.628;2023-07-20T05:43:25;17.40;99.90
15131;DHT22;7666;50.920;4.628;2023-07-20T05:46:11;17.30;99.90
15131;DHT22;7666;50.920;4.628;2023-07-20T05:48:57;17.30;99.90
15131;DHT22;7666;50.920;4.628;2023-07-20T05:51:43;17.30;99.90
15131;DHT22;7666;50.920;4.628;2023-07-20T05:54:29;17.30;99.90
15131;DHT22;7666;50.920;4.628;2023-07-20T05:57:15;17.40;99.90
15131;DHT22;7666;50.920;4.628;2023-07-20T06:00:01;17.40;99.90
15131;DHT22;7666;50.920;4.628;2023-07-20T06:02:48;17.50;99.90
15131;DHT22;7666;50.920;4.628;2023-07-20T06:05:34;17.50;99.90
15131;DHT22;7666;50.920;4.628;2023-07-20T06:08:20;17.60;99.90
15131;DHT22;7666;50.920;4.628;2023-07-20T06:11:06;17.70;99.90
15131;DHT22;7666;50.920;4.628;2023-07-20T06:13:52;17.80;99.90
15131;DHT22;7666;50.920;4.628;2023-07-20T06:16:38;17.80;99.90
15131;DHT22;7666;50.920;4.628;2023-07-20T06:19:23;17.70;99.90
15131;DHT22;7666;50.920;4.628;2023-07-20T06:22:09;17.80;99.90
15131;DHT22;7666;50.920;4.628;2023-07-20T06:24:55;18.00;99.90
15131;DHT22;7666;50.920;4.628;2023-07-20T06:27:42;18.10;99.90
15131;DHT22;7666;50.920;4.628;2023-07-20T06:30:28;18.20;99.90
15131;DHT22;7666;50.920;4.628;2023-07-20T06:33:15;18.20;99.90
15131;DHT22;7666;50.920;4.628;2023-07-20T06:36:00;18.30;99.90
15131;DHT22;7666;50.920;4.628;2023-07-20T06:38:47;18.40;99.90
15131;DHT22;7666;50.920;4.628;2023-07-20T06:41:33;18.50;99.90
15131;DHT22;7666;50.920;4.628;2023-07-20T06:44:19;18.60;99.90
15131;DHT22;7666;50.920;4.628;2023-07-20T06:47:04;18.90;99.90
15131;DHT22;7666;50.920;4.628;2023-07-20T06:49:50;19.00;99.90
15131;DHT22;7666;50.920;4.628;2023-07-20T06:52:36;19.20;99.90
15131;DHT22;7666;50.920;4.628;2023-07-20T06:55:22;19.10;99.90
15131;DHT22;7666;50.920;4.628;2023-07-20T06:58:10;19.00;99.90
15131;DHT22;7666;50.920;4.628;2023-07-20T07:00:56;18.90;99.90
15131;DHT22;7666;50.920;4.628;2023-07-20T07:03:42;18.70;99.90
15131;DHT22;7666;50.920;4.628;2023-07-20T07:06:28;18.70;99.90
15131;DHT22;7666;50.920;4.628;2023-07-20T07:09:14;18.70;99.90
15131;DHT22;7666;50.920;4.628;2023-07-20T07:12:00;18.60;99.90
15131;DHT22;7666;50.920;4.628;2023-07-20T07:14:46;18.60;99.90
15131;DHT22;7666;50.920;4.628;2023-07-20T07:17:32;18.70;99.90
15131;DHT22;7666;50.920;4.628;2023-07-20T07:20:18;18.90;99.90
15131;DHT22;7666;50.920;4.628;2023-07-20T07:23:04;19.20;99.90
15131;DHT22;7666;50.920;4.628;2023-07-20T07:25:50;19.50;99.90
15131;DHT22;7666;50.920;4.628;2023-07-20T07:28:37;19.70;99.90
15131;DHT22;7666;50.920;4.628;2023-07-20T07:31:25;19.80;99.90
15131;DHT22;7666;50.920;4.628;2023-07-20T07:34:11;19.80;99.90
15131;DHT22;7666;50.920;4.628;2023-07-20T07:36:57;19.90;99.90
15131;DHT22;7666;50.920;4.628;2023-07-20T07:39:43;20.00;99.90
15131;DHT22;7666;50.920;4.628;2023-07-20T07:42:29;20.10;99.90
15131;DHT22;7666;50.920;4.628;2023-07-20T07:45:15;20.30;99.90
15131;DHT22;7666;50.920;4.628;2023-07-20T07:48:02;20.50;99.90
15131;DHT22;7666;50.920;4.628;2023-07-20T07:50:49;20.90;99.90
15131;DHT22;7666;50.920;4.628;2023-07-20T07:53:35;21.60;99.90
15131;DHT22;7666;50.920;4.628;2023-07-20T07:56:22;22.10;99.90
15131;DHT22;7666;50.920;4.628;2023-07-20T07:59:08;22.50;99.90
15131;DHT22;7666;50.920;4.628;2023-07-20T08:01:54;22.90;99.90
15131;DHT22;7666;50.920;4.628;2023-07-20T08:04:40;23.20;99.90
15131;DHT22;7666;50.920;4.628;2023-07-20T08:07:26;23.10;99.90
15131;DHT22;7666;50.920;4.628;2023-07-20T08:10:12;22.80;99.90
15131;DHT22;7666;50.920;4.628;2023-07-20T08:12:58;22.50;99.90
15131;DHT22;7666;50.920;4.628;2023-07-20T08:15:48;22.40;99.90
15131;DHT22;7666;50.920;4.628;2023-07-20T08:18:34;22.10;99.90
15131;DHT22;7666;50.920;4.628;2023-07-20T08:21:20;22.00;99.90
15131;DHT22;7666;50.920;4.628;2023-07-20T08:24:06;21.80;99.90
15131;DHT22;7666;50.920;4.628;2023-07-20T08:26:53;21.70;99.90
15131;DHT22;7666;50.920;4.628;2023-07-20T08:29:39;21.60;99.90
15131;DHT22;7666;50.920;4.628;2023-07-20T08:32:25;21.60;99.90
15131;DHT22;7666;50.920;4.628;2023-07-20T08:35:11;21.60;99.90
15131;DHT22;7666;50.920;4.628;2023-07-20T08:37:57;22.10;99.90
15131;DHT22;7666;50.920;4.628;2023-07-20T08:40:44;22.20;99.90
15131;DHT22;7666;50.920;4.628;2023-07-20T08:43:31;22.60;99.90
15131;DHT22;7666;50.920;4.628;2023-07-20T08:46:19;22.90;99.90
15131;DHT22;7666;50.920;4.628;2023-07-20T08:49:06;23.20;99.90
15131;DHT22;7666;50.920;4.628;2023-07-20T08:51:52;23.40;99.90
15131;DHT22;7666;50.920;4.628;2023-07-20T08:54:39;23.60;99.90
15131;DHT22;7666;50.920;4.628;2023-07-20T08:57:26;23.80;99.90
15131;DHT22;7666;50.920;4.628;2023-07-20T09:00:13;23.90;99.90
15131;DHT22;7666;50.920;4.628;2023-07-20T09:03:02;24.10;99.90
15131;DHT22;7666;50.920;4.628;2023-07-20T09:05:49;24.20;99.90
15131;DHT22;7666;50.920;4.628;2023-07-20T09:08:38;24.30;99.90
15131;DHT22;7666;50.920;4.628;2023-07-20T09:11:24;24.40;99.90
15131;DHT22;7666;50.920;4.628;2023-07-20T09:14:10;24.40;99.90
15131;DHT22;7666;50.920;4.628;2023-07-20T09:16:56;24.00;99.90
15131;DHT22;7666;50.920;4.628;2023-07-20T09:19:46;24.00;99.90
15131;DHT22;7666;50.920;4.628;2023-07-20T09:22:33;24.00;99.90
15131;DHT22;7666;50.920;4.628;2023-07-20T09:25:19;24.20;99.90
15131;DHT22;7666;50.920;4.628;2023-07-20T09:28:08;24.20;99.90
15131;DHT22;7666;50.920;4.628;2023-07-20T09:30:55;24.20;99.90
15131;DHT22;7666;50.920;4.628;2023-07-20T09:33:42;24.30;99.90
15131;DHT22;7666;50.920;4.628;2023-07-20T09:36:28;24.60;99.90
15131;DHT22;7666;50.920;4.628;2023-07-20T09:39:15;24.70;99.90
15131;DHT22;7666;50.920;4.628;2023-07-20T09:42:01;24.70;99.90
15131;DHT22;7666;50.920;4.628;2023-07-20T09:44:48;24.90;99.90
15131;DHT22;7666;50.920;4.628;2023-07-20T09:47:39;25.10;99.90
15131;DHT22;7666;50.920;4.628;2023-07-20T09:50:25;24.80;99.90
15131;DHT22;7666;50.920;4.628;2023-07-20T09:53:12;25.00;99.90
15131;DHT22;7666;50.920;4.628;2023-07-20T09:56:02;25.00;99.90
15131;DHT22;7666;50.920;4.628;2023-07-20T09:58:48;25.00;99.90
15131;DHT22;7666;50.920;4.628;2023-07-20T10:01:34;25.10;99.90
15131;DHT22;7666;50.920;4.628;2023-07-20T10:04:21;25.10;99.90
15131;DHT22;7666;50.920;4.628;2023-07-20T10:07:10;25.10;99.90
15131;DHT22;7666;50.920;4.628;2023-07-20T10:10:01;25.20;99.90
15131;DHT22;7666;50.920;4.628;2023-07-20T10:12:49;25.20;99.90
15131;DHT22;7666;50.920;4.628;2023-07-20T10:15:36;25.20;99.90
15131;DHT22;7666;50.920;4.628;2023-07-20T10:18:29;25.00;99.90
15131;DHT22;7666;50.920;4.628;2023-07-20T10:21:17;24.80;99.90
15131;DHT22;7666;50.920;4.628;2023-07-20T10:24:05;24.80;99.90
15131;DHT22;7666;50.920;4.628;2023-07-20T10:26:51;24.80;99.90
15131;DHT22;7666;50.920;4.628;2023-07-20T10:29:38;24.90;99.90
15131;DHT22;7666;50.920;4.628;2023-07-20T10:32:25;25.10;99.90
15131;DHT22;7666;50.920;4.628;2023-07-20T10:35:15;24.80;99.90
15131;DHT22;7666;50.920;4.628;2023-07-20T10:38:02;24.50;99.90
15131;DHT22;7666;50.920;4.628;2023-07-20T10:40:55;24.50;99.90
15131;DHT22;7666;50.920;4.628;2023-07-20T10:43:45;24.60;99.90
15131;DHT22;7666;50.920;4.628;2023-07-20T10:49:24;25.40;99.90
15131;DHT22;7666;50.920;4.628;2023-07-20T10:52:12;25.60;99.90
15131;DHT22;7666;50.920;4.628;2023-07-20T10:55:10;25.30;99.90
15131;DHT22;7666;50.920;4.628;2023-07-20T10:58:07;25.20;99.90
15131;DHT22;7666;50.920;4.628;2023-07-20T11:00:59;25.20;99.90
15131;DHT22;7666;50.920;4.628;2023-07-20T11:03:50;25.40;99.90
15131;DHT22;7666;50.920;4.628;2023-07-20T11:06:36;25.50;99.90
15131;DHT22;7666;50.920;4.628;2023-07-20T11:09:26;25.60;99.90
15131;DHT22;7666;50.920;4.628;2023-07-20T11:12:19;25.60;99.90
15131;DHT22;7666;50.920;4.628;2023-07-20T11:15:05;25.60;99.90
15131;DHT22;7666;50.920;4.628;2023-07-20T11:17:51;25.80;99.90
15131;DHT22;7666;50.920;4.628;2023-07-20T11:20:37;25.80;99.90
15131;DHT22;7666;50.920;4.628;2023-07-20T11:23:23;25.60;99.90
15131;DHT22;7666;50.920;4.628;2023-07-20T11:26:09;25.50;99.90
15131;DHT22;7666;50.920;4.628;2023-07-20T11:28:58;25.40;99.90
15131;DHT22;7666;50.920;4.628;2023-07-20T11:31:46;25.20;99.90
15131;DHT22;7666;50.920;4.628;2023-07-20T11:34:33;25.00;99.90
15131;DHT22;7666;50.920;4.628;2023-07-20T11:37:19;24.60;99.90
15131;DHT22;7666;50.920;4.628;2023-07-20T11:40:06;24.50;99.90
15131;DHT22;7666;50.920;4.628;2023-07-20T11:42:53;24.40;99.90
15131;DHT22;7666;50.920;4.628;2023-07-20T11:45:39;24.40;99.90
15131;DHT22;7666;50.920;4.628;2023-07-20T11:48:25;24.30;99.90
15131;DHT22;7666;50.920;4.628;2023-07-20T11:51:18;24.30;99.90
15131;DHT22;7666;50.920;4.628;2023-07-20T11:54:07;24.40;99.90
15131;DHT22;7666;50.920;4.628;2023-07-20T11:56:54;24.60;99.90
15131;DHT22;7666;50.920;4.628;2023-07-20T11:59:56;25.00;99.90
15131;DHT22;7666;50.920;4.628;2023-07-20T12:02:46;25.10;99.90
15131;DHT22;7666;50.920;4.628;2023-07-20T12:05:33;25.00;99.90
15131;DHT22;7666;50.920;4.628;2023-07-20T12:08:19;25.00;99.90
15131;DHT22;7666;50.920;4.628;2023-07-20T12:11:05;24.70;99.90
15131;DHT22;7666;50.920;4.628;2023-07-20T12:13:51;24.40;99.90
15131;DHT22;7666;50.920;4.628;2023-07-20T12:16:37;24.20;99.90
15131;DHT22;7666;50.920;4.628;2023-07-20T12:19:25;24.00;99.90
15131;DHT22;7666;50.920;4.628;2023-07-20T12:22:11;23.90;99.90
15131;DHT22;7666;50.920;4.628;2023-07-20T12:24:57;24.00;99.90
15131;DHT22;7666;50.920;4.628;2023-07-20T12:27:44;24.10;99.90
15131;DHT22;7666;50.920;4.628;2023-07-20T12:30:30;24.30;99.90
15131;DHT22;7666;50.920;4.628;2023-07-20T12:33:16;24.80;99.90
15131;DHT22;7666;50.920;4.628;2023-07-20T12:36:03;25.20;99.90
15131;DHT22;7666;50.920;4.628;2023-07-20T12:38:50;25.20;99.90
15131;DHT22;7666;50.920;4.628;2023-07-20T12:41:36;25.50;99.90
15131;DHT22;7666;50.920;4.628;2023-07-20T12:44:22;25.90;99.90
15131;DHT22;7666;50.920;4.628;2023-07-20T12:47:08;25.90;99.90
15131;DHT22;7666;50.920;4.628;2023-07-20T12:49:54;25.70;99.90
15131;DHT22;7666;50.920;4.628;2023-07-20T12:52:41;25.20;99.90
15131;DHT22;7666;50.920;4.628;2023-07-20T12:55:27;25.00;99.90
15131;DHT22;7666;50.920;4.628;2023-07-20T12:58:13;24.90;99.90
15131;DHT22;7666;50.920;4.628;2023-07-20T13:00:59;25.20;99.90
15131;DHT22;7666;50.920;4.628;2023-07-20T13:03:45;25.30;99.90
15131;DHT22;7666;50.920;4.628;2023-07-20T13:06:31;25.40;99.90
15131;DHT22;7666;50.920;4.628;2023-07-20T13:09:17;25.50;99.90
15131;DHT22;7666;50.920;4.628;2023-07-20T13:12:03;25.60;99.90
15131;DHT22;7666;50.920;4.628;2023-07-20T13:14:49;25.60;99.90
15131;DHT22;7666;50.920;4.628;2023-07-20T13:17:36;25.60;99.90
15131;DHT22;7666;50.920;4.628;2023-07-20T13:20:22;25.50;99.90
15131;DHT22;7666;50.920;4.628;2023-07-20T13:23:08;25.50;99.90
15131;DHT22;7666;50.920;4.628;2023-07-20T13:25:54;25.40;99.90
15131;DHT22;7666;50.920;4.628;2023-07-20T13:28:40;25.60;99.90
15131;DHT22;7666;50.920;4.628;2023-07-20T13:31:26;25.60;99.90
15131;DHT22;7666;50.920;4.628;2023-07-20T13:34:12;25.60;99.90
15131;DHT22;7666;50.920;4.628;2023-07-20T13:36:58;25.50;99.90
15131;DHT22;7666;50.920;4.628;2023-07-20T13:39:44;25.30;99.90
15131;DHT22;7666;50.920;4.628;2023-07-20T13:42:31;25.20;99.90
15131;DHT22;7666;50.920;4.628;2023-07-20T13:45:18;25.20;99.90
15131;DHT22;7666;50.920;4.628;2023-07-20T13:48:04;24.80;99.90
15131;DHT22;7666;50.920;4.628;2023-07-20T13:50:50;24.40;99.90
15131;DHT22;7666;50.920;4.628;2023-07-20T13:53:36;24.10;99.90
15131;DHT22;7666;50.920;4.628;2023-07-20T13:56:23;23.90;99.90
15131;DHT22;7666;50.920;4.628;2023-07-20T13:59:10;23.70;99.90
15131;DHT22;7666;50.920;4.628;2023-07-20T14:01:56;23.50;99.90
15131;DHT22;7666;50.920;4.628;2023-07-20T14:04:42;23.30;99.90
15131;DHT22;7666;50.920;4.628;2023-07-20T14:07:28;23.20;99.90
15131;DHT22;7666;50.920;4.628;2023-07-20T14:10:14;22.90;99.90
15131;DHT22;7666;50.920;4.628;2023-07-20T14:13:00;22.80;99.90
15131;DHT22;7666;50.920;4.628;2023-07-20T14:15:46;22.70;99.90
15131;DHT22;7666;50.920;4.628;2023-07-20T14:18:32;22.50;99.90
15131;DHT22;7666;50.920;4.628;2023-07-20T14:21:19;22.40;99.90
15131;DHT22;7666;50.920;4.628;2023-07-20T14:24:05;22.30;99.90
15131;DHT22;7666;50.920;4.628;2023-07-20T14:26:51;22.40;99.90
15131;DHT22;7666;50.920;4.628;2023-07-20T14:29:37;22.50;99.90
15131;DHT22;7666;50.920;4.628;2023-07-20T14:32:23;22.50;99.90
15131;DHT22;7666;50.920;4.628;2023-07-20T14:35:09;22.60;99.90
15131;DHT22;7666;50.920;4.628;2023-07-20T14:37:55;22.50;99.90
15131;DHT22;7666;50.920;4.628;2023-07-20T14:40:41;22.50;99.90
15131;DHT22;7666;50.920;4.628;2023-07-20T14:43:27;22.50;99.90
15131;DHT22;7666;50.920;4.628;2023-07-20T14:46:13;22.60;99.90
15131;DHT22;7666;50.920;4.628;2023-07-20T14:48:59;22.60;99.90
15131;DHT22;7666;50.920;4.628;2023-07-20T14:51:45;22.70;99.90
15131;DHT22;7666;50.920;4.628;2023-07-20T14:54:32;22.90;99.90
15131;DHT22;7666;50.920;4.628;2023-07-20T14:57:18;23.20;99.90
15131;DHT22;7666;50.920;4.628;2023-07-20T15:00:05;23.50;99.90
15131;DHT22;7666;50.920;4.628;2023-07-20T15:02:56;23.80;99.90
15131;DHT22;7666;50.920;4.628;2023-07-20T15:05:42;23.80;99.90
15131;DHT22;7666;50.920;4.628;2023-07-20T15:08:28;23.90;99.90
15131;DHT22;7666;50.920;4.628;2023-07-20T15:11:14;24.00;99.90
15131;DHT22;7666;50.920;4.628;2023-07-20T15:14:00;23.90;99.90
15131;DHT22;7666;50.920;4.628;2023-07-20T15:16:47;24.00;99.90
15131;DHT22;7666;50.920;4.628;2023-07-20T15:19:33;23.90;99.90
15131;DHT22;7666;50.920;4.628;2023-07-20T15:22:20;23.80;99.90
15131;DHT22;7666;50.920;4.628;2023-07-20T15:25:08;23.60;99.90
15131;DHT22;7666;50.920;4.628;2023-07-20T15:27:56;23.40;99.90
15131;DHT22;7666;50.920;4.628;2023-07-20T15:30:42;23.20;99.90
15131;DHT22;7666;50.920;4.628;2023-07-20T15:33:28;23.00;99.90
15131;DHT22;7666;50.920;4.628;2023-07-20T15:36:14;23.00;99.90
15131;DHT22;7666;50.920;4.628;2023-07-20T15:39:00;23.00;99.90
15131;DHT22;7666;50.920;4.628;2023-07-20T15:41:47;22.90;99.90
15131;DHT22;7666;50.920;4.628;2023-07-20T15:44:34;22.80;99.90
15131;DHT22;7666;50.920;4.628;2023-07-20T15:47:20;22.70;99.90
15131;DHT22;7666;50.920;4.628;2023-07-20T15:50:06;22.50;99.90
15131;DHT22;7666;50.920;4.628;2023-07-20T15:52:52;22.40;99.90
15131;DHT22;7666;50.920;4.628;2023-07-20T15:55:38;22.30;99.90
15131;DHT22;7666;50.920;4.628;2023-07-20T15:58:24;22.30;99.90
15131;DHT22;7666;50.920;4.628;2023-07-20T16:01:10;22.20;99.90
15131;DHT22;7666;50.920;4.628;2023-07-20T16:03:57;22.20;99.90
15131;DHT22;7666;50.920;4.628;2023-07-20T16:06:43;22.10;99.90
15131;DHT22;7666;50.920;4.628;2023-07-20T16:09:29;21.90;99.90
15131;DHT22;7666;50.920;4.628;2023-07-20T16:12:15;21.90;99.90
15131;DHT22;7666;50.920;4.628;2023-07-20T16:15:01;21.80;99.90
15131;DHT22;7666;50.920;4.628;2023-07-20T16:17:47;21.70;99.90
15131;DHT22;7666;50.920;4.628;2023-07-20T16:20:33;21.40;99.90
15131;DHT22;7666;50.920;4.628;2023-07-20T16:23:19;20.00;99.90
15131;DHT22;7666;50.920;4.628;2023-07-20T16:26:05;19.00;99.90
15131;DHT22;7666;50.920;4.628;2023-07-20T16:28:51;18.40;99.90
15131;DHT22;7666;50.920;4.628;2023-07-20T16:31:37;17.90;99.90
15131;DHT22;7666;50.920;4.628;2023-07-20T16:34:23;17.80;99.90
15131;DHT22;7666;50.920;4.628;2023-07-20T16:37:09;17.70;99.90
15131;DHT22;7666;50.920;4.628;2023-07-20T16:39:55;17.70;99.90
15131;DHT22;7666;50.920;4.628;2023-07-20T16:42:41;17.80;99.90
15131;DHT22;7666;50.920;4.628;2023-07-20T16:45:28;17.80;99.90
15131;DHT22;7666;50.920;4.628;2023-07-20T16:48:14;17.80;99.90
15131;DHT22;7666;50.920;4.628;2023-07-20T16:51:01;17.90;99.90
15131;DHT22;7666;50.920;4.628;2023-07-20T16:53:48;17.90;99.90
15131;DHT22;7666;50.920;4.628;2023-07-20T16:56:34;18.00;99.90
15131;DHT22;7666;50.920;4.628;2023-07-20T16:59:20;18.00;99.90
15131;DHT22;7666;50.920;4.628;2023-07-20T17:02:06;18.10;99.90
15131;DHT22;7666;50.920;4.628;2023-07-20T17:04:52;18.20;99.90
15131;DHT22;7666;50.920;4.628;2023-07-20T17:07:41;18.30;99.90
15131;DHT22;7666;50.920;4.628;2023-07-20T17:10:27;18.30;99.90
15131;DHT22;7666;50.920;4.628;2023-07-20T17:13:13;18.30;99.90
15131;DHT22;7666;50.920;4.628;2023-07-20T17:16:00;18.30;99.90
15131;DHT22;7666;50.920;4.628;2023-07-20T17:18:46;18.40;99.90
15131;DHT22;7666;50.920;4.628;2023-07-20T17:21:32;18.50;99.90
15131;DHT22;7666;50.920;4.628;2023-07-20T17:24:18;18.60;99.90
15131;DHT22;7666;50.920;4.628;2023-07-20T17:27:04;18.60;99.90
15131;DHT22;7666;50.920;4.628;2023-07-20T17:29:50;18.50;99.90
15131;DHT22;7666;50.920;4.628;2023-07-20T17:32:36;18.50;99.90
15131;DHT22;7666;50.920;4.628;2023-07-20T17:35:22;18.60;99.90
15131;DHT22;7666;50.920;4.628;2023-07-20T17:38:08;18.60;99.90
15131;DHT22;7666;50.920;4.628;2023-07-20T17:40:54;18.70;99.90
15131;DHT22;7666;50.920;4.628;2023-07-20T17:43:40;18.70;99.90
15131;DHT22;7666;50.920;4.628;2023-07-20T17:46:26;18.80;99.90
15131;DHT22;7666;50.920;4.628;2023-07-20T17:49:12;18.80;99.90
15131;DHT22;7666;50.920;4.628;2023-07-20T17:51:58;18.70;99.90
15131;DHT22;7666;50.920;4.628;2023-07-20T17:54:44;18.60;99.90
15131;DHT22;7666;50.920;4.628;2023-07-20T17:57:30;18.40;99.90